createdAt,value
2019-03-01T00:01:20.277Z,12.15
2019-03-01T00:03:51.849Z,12.18
2019-03-01T00:06:22.445Z,12.55
2019-03-01T00:09:33.918Z,12.20
2019-03-01T00:12:30.983Z,12.98
2019-03-01T00:15:20.194Z,13.05
2019-03-01T00:18:44.660Z,12.07
2019-03-01T00:21:39.646Z,13.55
2019-03-01T00:24:19.419Z,12.20
2019-03-01T00:27:24.211Z,13.72
2019-03-01T00:30:19.951Z,13.25
2019-03-01T00:32:58.952Z,13.45
2019-03-01T00:36:10.229Z,13.40
2019-03-01T00:39:04.936Z,13.70
2019-03-01T00:41:43.176Z,13.78
2019-03-01T00:44:42.580Z,13.62
2019-03-01T00:47:09.912Z,13.62
2019-03-01T00:49:37.123Z,13.38
2019-03-01T00:52:04.375Z,13.53
2019-03-01T00:54:31.574Z,13.98
2019-03-01T00:56:58.648Z,16.48
2019-03-01T00:59:25.753Z,15.48
2019-03-01T01:01:53.153Z,14.83
2019-03-01T01:04:20.244Z,14.03
2019-03-01T01:06:47.506Z,14.45
2019-03-01T01:09:15.477Z,14.55
2019-03-01T01:11:42.494Z,14.60
2019-03-01T01:14:09.575Z,15.65
2019-03-01T01:16:36.551Z,15.55
2019-03-01T01:19:03.534Z,15.68
2019-03-01T01:21:30.795Z,16.27
2019-03-01T01:23:58.129Z,17.95
2019-03-01T01:26:25.228Z,15.83
2019-03-01T01:28:52.192Z,16.77
2019-03-01T01:31:19.351Z,17.50
2019-03-01T01:33:46.334Z,17.70
2019-03-01T01:36:13.732Z,17.80
2019-03-01T01:38:41.339Z,17.25
2019-03-01T01:41:08.641Z,19.37
2019-03-01T01:43:36.128Z,18.23
2019-03-01T01:46:03.377Z,17.98
2019-03-01T01:48:30.431Z,21.82
2019-03-01T01:51:00.160Z,20.68
2019-03-01T01:53:27.419Z,21.05
2019-03-01T01:55:54.458Z,21.17
2019-03-01T01:58:21.923Z,22.62
2019-03-01T02:00:49.263Z,21.70
2019-03-01T02:03:16.211Z,21.10
2019-03-01T02:05:44.642Z,21.27
2019-03-01T02:08:11.639Z,19.90
2019-03-01T02:10:38.810Z,21.37
2019-03-01T02:13:05.903Z,20.68
2019-03-01T02:15:32.883Z,19.62
2019-03-01T02:18:00.128Z,18.80
2019-03-01T02:20:27.253Z,18.32
2019-03-01T02:22:55.066Z,19.25
2019-03-01T02:25:25.171Z,18.90
2019-03-01T02:27:52.608Z,18.45
2019-03-01T02:30:22.021Z,17.92
2019-03-01T02:32:49.844Z,18.55
2019-03-01T02:35:19.048Z,18.02
2019-03-01T02:37:46.189Z,19.15
2019-03-01T02:40:15.943Z,18.85
2019-03-01T02:42:43.317Z,18.35
2019-03-01T02:45:13.056Z,18.35
2019-03-01T02:47:40.216Z,18.98
2019-03-01T02:50:08.276Z,18.62
2019-03-01T02:52:36.314Z,20.20
2019-03-01T02:55:03.803Z,19.10
2019-03-01T02:57:31.117Z,19.25
2019-03-01T02:59:58.529Z,19.98
2019-03-01T03:02:26.026Z,17.67
2019-03-01T03:04:53.811Z,16.85
2019-03-01T03:07:26.584Z,16.35
2019-03-01T03:09:54.045Z,17.48
2019-03-01T03:12:21.177Z,17.30
2019-03-01T03:14:48.217Z,17.82
2019-03-01T03:17:16.008Z,18.62
2019-03-01T03:19:43.078Z,18.90
2019-03-01T03:22:10.135Z,18.55
2019-03-01T03:24:37.163Z,17.62
2019-03-01T03:27:04.220Z,17.52
2019-03-01T03:29:31.421Z,18.42
2019-03-01T03:31:58.718Z,20.08
2019-03-01T03:34:26.091Z,18.10
2019-03-01T03:36:53.295Z,19.30
2019-03-01T03:39:20.503Z,18.95
2019-03-01T03:41:47.733Z,20.30
2019-03-01T03:44:15.513Z,19.05
2019-03-01T03:46:43.857Z,19.75
2019-03-01T03:49:10.920Z,19.62
2019-03-01T03:51:38.308Z,21.60
2019-03-01T03:54:05.306Z,21.20
2019-03-01T03:56:32.275Z,20.10
2019-03-01T03:58:59.572Z,19.45
2019-03-01T04:01:27.272Z,20.37
2019-03-01T04:03:54.894Z,18.67
2019-03-01T04:06:23.115Z,18.35
2019-03-01T04:08:50.257Z,20.35
2019-03-01T04:11:17.442Z,20.30
2019-03-01T04:13:44.776Z,20.00
2019-03-01T04:16:11.777Z,21.48
2019-03-01T04:18:39.432Z,20.68
2019-03-01T04:21:06.591Z,19.45
2019-03-01T04:23:33.865Z,21.20
2019-03-01T04:26:00.981Z,20.45
2019-03-01T04:28:27.965Z,19.62
2019-03-01T04:30:55.318Z,19.30
2019-03-01T04:33:22.330Z,19.23
2019-03-01T04:35:49.430Z,19.05
2019-03-01T04:38:16.670Z,18.55
2019-03-01T04:40:43.709Z,18.10
2019-03-01T04:43:10.730Z,17.87
2019-03-01T04:45:38.148Z,18.70
2019-03-01T04:48:05.257Z,17.50
2019-03-01T04:50:32.207Z,18.10
2019-03-01T04:52:59.210Z,17.20
2019-03-01T04:55:26.326Z,17.50
2019-03-01T04:57:53.348Z,19.02
2019-03-01T05:00:21.881Z,17.62
2019-03-01T05:02:49.078Z,17.07
2019-03-01T05:05:16.634Z,17.10
2019-03-01T05:07:43.875Z,17.42
2019-03-01T05:10:11.219Z,16.93
2019-03-01T05:12:38.638Z,14.78
2019-03-01T05:15:07.805Z,15.15
2019-03-01T05:17:34.771Z,15.98
2019-03-01T05:20:01.900Z,13.22
2019-03-01T05:22:29.250Z,13.18
2019-03-01T05:24:56.326Z,14.03
2019-03-01T05:27:23.656Z,12.90
2019-03-01T05:29:50.998Z,13.75
2019-03-01T05:32:18.798Z,13.03
2019-03-01T05:34:45.856Z,12.95
2019-03-01T05:37:12.915Z,15.13
2019-03-01T05:39:40.142Z,13.75
2019-03-01T05:42:07.487Z,14.95
2019-03-01T05:44:34.823Z,12.85
2019-03-01T05:47:01.821Z,13.70
2019-03-01T05:49:28.931Z,15.55
2019-03-01T05:51:56.035Z,13.58
2019-03-01T05:54:23.384Z,13.93
2019-03-01T05:56:51.030Z,14.68
2019-03-01T05:59:20.751Z,14.47
2019-03-01T06:02:26.699Z,13.15
2019-03-01T06:04:57.536Z,13.78
2019-03-01T06:07:46.379Z,12.98
2019-03-01T06:10:40.356Z,12.40
2019-03-01T06:13:40.724Z,12.65
2019-03-01T06:16:46.277Z,11.30
2019-03-01T06:19:39.823Z,11.33
2019-03-01T06:22:34.741Z,11.20
2019-03-01T06:25:46.449Z,10.08
2019-03-01T06:28:25.395Z,10.20
2019-03-01T06:31:35.206Z,11.03
2019-03-01T06:34:19.856Z,10.15
2019-03-01T06:37:44.383Z,9.10
2019-03-01T06:40:28.020Z,10.18
2019-03-01T06:44:01.628Z,9.60
2019-03-01T06:46:37.572Z,9.37
2019-03-01T06:49:30.474Z,8.95
2019-03-01T06:51:57.580Z,9.73
2019-03-01T06:54:24.751Z,9.98
2019-03-01T06:56:52.044Z,9.50
2019-03-01T06:59:19.160Z,9.33
2019-03-01T07:01:46.759Z,10.65
2019-03-01T07:04:20.605Z,10.10
2019-03-01T07:06:47.863Z,10.30
2019-03-01T07:09:15.511Z,10.88
2019-03-01T07:11:43.377Z,8.73
2019-03-01T07:14:10.873Z,10.10
2019-03-01T07:16:37.984Z,10.23
2019-03-01T07:19:05.558Z,10.70
2019-03-01T07:21:32.655Z,10.10
2019-03-01T07:23:59.732Z,9.40
2019-03-01T07:26:27.404Z,9.23
2019-03-01T07:28:55.271Z,9.10
2019-03-01T07:31:22.958Z,10.35
2019-03-01T07:33:50.386Z,8.93
2019-03-01T07:36:17.581Z,9.70
2019-03-01T07:38:44.723Z,10.25
2019-03-01T07:41:14.801Z,10.23
2019-03-01T07:43:42.282Z,10.95
2019-03-01T07:46:12.142Z,10.95
2019-03-01T07:48:39.499Z,9.40
2019-03-01T07:51:06.537Z,8.88
2019-03-01T07:53:35.650Z,9.88
2019-03-01T07:56:04.005Z,9.30
2019-03-01T07:58:31.717Z,9.13
2019-03-01T08:00:58.827Z,8.40
2019-03-01T08:03:25.803Z,7.80
2019-03-01T08:05:52.810Z,7.28
2019-03-01T08:08:20.615Z,6.40
2019-03-01T08:10:48.111Z,6.42
2019-03-01T08:13:17.582Z,6.22
2019-03-01T08:15:44.963Z,5.85
2019-03-01T08:18:13.002Z,6.83
2019-03-01T08:20:40.010Z,4.95
2019-03-01T08:23:07.168Z,4.60
2019-03-01T08:25:34.485Z,4.42
2019-03-01T08:28:01.799Z,3.62
2019-03-01T08:30:29.121Z,2.85
2019-03-01T08:32:56.200Z,4.80
2019-03-01T08:35:25.328Z,4.15
2019-03-01T08:37:53.510Z,4.45
2019-03-01T08:40:21.480Z,4.12
2019-03-01T08:42:48.861Z,4.47
2019-03-01T08:45:16.100Z,4.55
2019-03-01T08:47:43.470Z,5.08
2019-03-01T08:50:12.775Z,5.72
2019-03-01T08:52:40.473Z,6.17
2019-03-01T08:55:09.946Z,6.78
2019-03-01T08:57:44.064Z,6.58
2019-03-01T09:00:10.650Z,6.90
2019-03-01T09:02:38.453Z,6.83
2019-03-01T09:05:08.919Z,7.00
2019-03-01T09:07:35.864Z,8.23
2019-03-01T09:10:03.524Z,7.03
2019-03-01T09:12:30.925Z,5.60
2019-03-01T09:14:58.363Z,6.65
2019-03-01T09:17:25.525Z,6.72
2019-03-01T09:19:53.141Z,4.47
2019-03-01T09:22:20.303Z,4.30
2019-03-01T09:24:49.535Z,4.17
2019-03-01T09:27:16.634Z,4.35
2019-03-01T09:29:43.817Z,5.00
2019-03-01T09:32:11.137Z,5.67
2019-03-01T09:34:38.132Z,5.22
2019-03-01T09:37:05.245Z,2.70
2019-03-01T09:39:32.735Z,3.17
2019-03-01T09:42:03.229Z,2.80
2019-03-01T09:44:28.942Z,2.30
2019-03-01T09:46:58.440Z,3.55
2019-03-01T09:49:25.272Z,4.15
2019-03-01T09:51:52.402Z,2.90
2019-03-01T09:54:19.499Z,2.98
2019-03-01T09:56:46.751Z,3.58
2019-03-01T09:59:13.806Z,3.35
2019-03-01T10:01:41.155Z,3.40
2019-03-01T10:04:08.474Z,3.58
2019-03-01T10:06:38.421Z,2.72
2019-03-01T10:09:09.800Z,2.27
2019-03-01T10:11:37.452Z,2.22
2019-03-01T10:14:04.793Z,3.65
2019-03-01T10:16:31.791Z,2.95
2019-03-01T10:18:58.837Z,1.75
2019-03-01T10:21:26.667Z,1.90
2019-03-01T10:23:53.942Z,3.02
2019-03-01T10:26:21.044Z,2.33
2019-03-01T10:28:48.450Z,2.55
2019-03-01T10:31:15.791Z,2.15
2019-03-01T10:33:43.009Z,2.08
2019-03-01T10:36:10.489Z,3.65
2019-03-01T10:38:37.638Z,2.52
2019-03-01T10:41:04.870Z,3.87
2019-03-01T10:43:33.219Z,3.25
2019-03-01T10:46:00.767Z,3.25
2019-03-01T10:48:28.286Z,2.95
2019-03-01T10:50:55.407Z,3.25
2019-03-01T10:53:22.469Z,2.55
2019-03-01T10:55:49.576Z,3.02
2019-03-01T10:58:16.901Z,3.42
2019-03-01T11:00:45.363Z,3.00
2019-03-01T11:03:12.383Z,2.65
2019-03-01T11:05:39.859Z,2.72
2019-03-01T11:08:08.216Z,2.90
2019-03-01T11:10:35.943Z,2.90
2019-03-01T11:13:04.561Z,2.77
2019-03-01T11:15:31.636Z,3.12
2019-03-01T11:17:58.860Z,3.33
2019-03-01T11:20:26.570Z,2.30
2019-03-01T11:22:53.701Z,2.27
2019-03-01T11:25:21.540Z,2.42
2019-03-01T11:27:49.048Z,2.87
2019-03-01T11:30:21.266Z,2.10
2019-03-01T11:32:49.285Z,2.60
2019-03-01T11:35:16.716Z,2.75
2019-03-01T11:37:44.671Z,2.85
2019-03-01T11:40:17.076Z,2.42
2019-03-01T11:42:44.367Z,2.22
2019-03-01T11:45:12.810Z,2.30
2019-03-01T11:47:40.241Z,3.98
2019-03-01T11:50:10.246Z,2.75
2019-03-01T11:52:37.611Z,2.72
2019-03-01T11:55:05.071Z,2.45
2019-03-01T11:57:32.148Z,2.15
2019-03-01T11:59:59.676Z,1.98
2019-03-01T12:02:26.675Z,2.10
2019-03-01T12:04:53.719Z,2.40
2019-03-01T12:07:20.848Z,1.92
2019-03-01T12:09:47.813Z,2.37
2019-03-01T12:12:14.918Z,2.05
2019-03-01T12:14:41.926Z,2.70
2019-03-01T12:17:09.236Z,2.27
2019-03-01T12:19:36.414Z,2.15
2019-03-01T12:22:03.664Z,2.10
2019-03-01T12:24:31.110Z,2.77
2019-03-01T12:26:58.648Z,2.20
2019-03-01T12:29:25.799Z,2.33
2019-03-01T12:31:52.882Z,1.95
2019-03-01T12:34:19.999Z,2.52
2019-03-01T12:36:47.322Z,2.40
2019-03-01T12:39:14.490Z,3.22
2019-03-01T12:41:41.559Z,2.58
2019-03-01T12:44:08.874Z,3.58
2019-03-01T12:46:36.023Z,2.52
2019-03-01T12:49:03.246Z,2.62
2019-03-01T12:51:30.759Z,2.83
2019-03-01T12:53:57.905Z,3.02
2019-03-01T12:56:25.077Z,2.20
2019-03-01T12:58:52.459Z,3.05
2019-03-01T13:01:19.473Z,2.12
2019-03-01T13:03:46.740Z,2.95
2019-03-01T13:06:14.083Z,2.15
2019-03-01T13:08:41.666Z,2.17
2019-03-01T13:11:08.764Z,2.15
2019-03-01T13:13:38.318Z,2.37
2019-03-01T13:16:05.643Z,2.00
2019-03-01T13:18:33.103Z,2.15
2019-03-01T13:21:00.769Z,2.35
2019-03-01T13:23:27.918Z,2.70
2019-03-01T13:25:55.344Z,2.05
2019-03-01T13:28:22.492Z,2.33
2019-03-01T13:30:49.658Z,2.20
2019-03-01T13:33:16.967Z,2.12
2019-03-01T13:35:45.000Z,2.75
2019-03-01T13:38:12.362Z,2.47
2019-03-01T13:40:39.564Z,3.33
2019-03-01T13:43:06.799Z,2.42
2019-03-01T13:45:33.847Z,2.45
2019-03-01T13:48:03.142Z,2.50
2019-03-01T13:50:30.139Z,2.10
2019-03-01T13:52:57.952Z,2.40
2019-03-01T13:55:27.549Z,2.35
2019-03-01T13:57:54.622Z,1.98
2019-03-01T14:00:22.248Z,2.20
2019-03-01T14:02:49.993Z,2.77
2019-03-01T14:05:18.639Z,2.72
2019-03-01T14:07:46.118Z,2.92
2019-03-01T14:10:15.188Z,2.72
2019-03-01T14:12:42.675Z,2.00
2019-03-01T14:15:12.314Z,2.37
2019-03-01T14:17:39.624Z,2.58
2019-03-01T14:20:09.623Z,2.47
2019-03-01T14:22:36.992Z,2.15
2019-03-01T14:25:05.261Z,3.33
2019-03-01T14:27:33.024Z,3.15
2019-03-01T14:30:00.273Z,2.22
2019-03-01T14:32:27.693Z,2.40
2019-03-01T14:34:54.843Z,2.10
2019-03-01T14:37:21.995Z,2.35
2019-03-01T14:39:49.554Z,2.12
2019-03-01T14:42:17.014Z,2.75
2019-03-01T14:44:44.024Z,2.65
2019-03-01T14:47:13.079Z,2.10
2019-03-01T14:49:39.965Z,2.22
2019-03-01T14:52:06.975Z,2.60
2019-03-01T14:54:34.082Z,2.90
2019-03-01T14:57:10.696Z,2.55
2019-03-01T14:59:49.258Z,4.28
2019-03-01T15:02:50.543Z,3.02
2019-03-01T15:05:19.806Z,2.20
2019-03-01T15:07:46.720Z,2.60
2019-03-01T15:10:14.058Z,3.10
2019-03-01T15:12:41.303Z,2.52
2019-03-01T15:15:09.706Z,2.83
2019-03-01T15:17:37.236Z,2.42
2019-03-01T15:20:07.047Z,2.70
2019-03-01T15:22:34.227Z,2.77
2019-03-01T15:25:01.351Z,3.05
2019-03-01T15:27:28.429Z,2.47
2019-03-01T15:29:56.072Z,2.87
2019-03-01T15:32:23.291Z,3.12
2019-03-01T15:34:50.397Z,2.75
2019-03-01T15:37:17.565Z,2.67
2019-03-01T15:39:45.344Z,2.50
2019-03-01T15:42:14.264Z,3.10
2019-03-01T15:44:41.873Z,2.83
2019-03-01T15:47:09.001Z,2.85
2019-03-01T15:49:36.139Z,2.87
2019-03-01T15:52:03.769Z,2.65
2019-03-01T15:54:32.455Z,2.30
2019-03-01T15:57:01.090Z,2.75
2019-03-01T15:59:28.112Z,4.17
2019-03-01T16:01:55.355Z,2.45
2019-03-01T16:04:22.822Z,3.30
2019-03-01T16:06:55.206Z,3.10
2019-03-01T16:09:21.812Z,2.58
2019-03-01T16:11:47.764Z,3.30
2019-03-01T16:14:14.786Z,3.83
2019-03-01T16:16:41.834Z,3.45
2019-03-01T16:19:11.122Z,2.72
2019-03-01T16:21:39.784Z,4.08
2019-03-01T16:24:08.153Z,3.20
2019-03-01T16:26:36.405Z,4.25
2019-03-01T16:29:07.222Z,3.60
2019-03-01T16:31:34.199Z,2.65
2019-03-01T16:34:04.356Z,3.15
2019-03-01T16:36:38.299Z,2.37
2019-03-01T16:39:09.531Z,2.98
2019-03-01T16:41:39.674Z,3.05
2019-03-01T16:44:18.945Z,3.17
2019-03-01T16:46:46.679Z,2.55
2019-03-01T16:49:14.451Z,2.67
2019-03-01T16:51:42.261Z,2.92
2019-03-01T16:54:15.419Z,2.87
2019-03-01T16:56:40.744Z,2.65
2019-03-01T16:59:08.411Z,2.75
2019-03-01T17:01:36.561Z,3.22
2019-03-01T17:04:04.297Z,2.47
2019-03-01T17:06:33.551Z,2.80
2019-03-01T17:09:01.560Z,2.55
2019-03-01T17:11:31.558Z,2.92
2019-03-01T17:14:02.462Z,2.90
2019-03-01T17:16:29.865Z,3.02
2019-03-01T17:18:57.825Z,2.80
2019-03-01T17:21:25.625Z,2.95
2019-03-01T17:23:54.684Z,2.90
2019-03-01T17:26:26.310Z,2.90
2019-03-01T17:28:52.575Z,3.20
2019-03-01T17:31:23.242Z,2.70
2019-03-01T17:33:50.062Z,2.70
2019-03-01T17:36:18.050Z,2.42
2019-03-01T17:38:46.198Z,3.52
2019-03-01T17:41:13.867Z,2.77
2019-03-01T17:43:40.871Z,3.12
2019-03-01T17:46:08.305Z,2.83
2019-03-01T17:48:35.403Z,2.62
2019-03-01T17:51:02.440Z,2.83
2019-03-01T17:53:29.447Z,2.90
2019-03-01T17:55:56.407Z,3.45
2019-03-01T17:58:23.399Z,2.87
2019-03-01T18:00:50.348Z,3.05
2019-03-01T18:03:17.350Z,3.22
2019-03-01T18:05:44.434Z,3.60
2019-03-01T18:08:11.511Z,3.02
2019-03-01T18:10:38.718Z,3.10
2019-03-01T18:13:06.167Z,3.77
2019-03-01T18:15:33.139Z,3.58
2019-03-01T18:18:00.112Z,2.65
2019-03-01T18:20:27.614Z,3.35
2019-03-01T18:22:54.694Z,3.77
2019-03-01T18:25:22.763Z,3.10
2019-03-01T18:27:53.082Z,2.85
2019-03-01T18:30:21.004Z,3.77
2019-03-01T18:32:48.087Z,2.83
2019-03-01T18:35:15.382Z,3.67
2019-03-01T18:37:42.520Z,3.33
2019-03-01T18:40:09.955Z,3.20
2019-03-01T18:42:38.116Z,3.20
2019-03-01T18:45:08.234Z,2.85
2019-03-01T18:47:35.532Z,3.55
2019-03-01T18:50:04.388Z,3.12
2019-03-01T18:52:32.489Z,3.25
2019-03-01T18:54:59.467Z,3.62
2019-03-01T18:57:26.814Z,3.60
2019-03-01T18:59:56.482Z,2.98
2019-03-01T19:02:24.391Z,3.87
2019-03-01T19:04:51.812Z,3.02
2019-03-01T19:07:18.785Z,3.60
2019-03-01T19:09:48.751Z,3.45
2019-03-01T19:12:15.021Z,3.15
2019-03-01T19:14:42.740Z,3.02
2019-03-01T19:17:10.265Z,3.87
2019-03-01T19:19:37.326Z,3.77
2019-03-01T19:22:04.664Z,3.80
2019-03-01T19:24:32.017Z,3.25
2019-03-01T19:26:59.184Z,3.55
2019-03-01T19:29:26.463Z,3.17
2019-03-01T19:31:53.668Z,3.72
2019-03-01T19:34:20.842Z,2.90
2019-03-01T19:36:50.407Z,2.77
2019-03-01T19:39:21.130Z,2.72
2019-03-01T19:41:48.433Z,3.60
2019-03-01T19:44:15.437Z,3.42
2019-03-01T19:46:42.689Z,3.77
2019-03-01T19:49:12.854Z,4.47
2019-03-01T19:51:38.732Z,4.22
2019-03-01T19:54:08.282Z,3.05
2019-03-01T19:56:35.528Z,4.53
2019-03-01T19:59:03.009Z,4.10
2019-03-01T20:01:30.079Z,4.30
2019-03-01T20:03:57.209Z,3.83
2019-03-01T20:06:24.294Z,3.37
2019-03-01T20:08:51.372Z,3.27
2019-03-01T20:11:18.623Z,5.53
2019-03-01T20:13:45.761Z,4.47
2019-03-01T20:16:13.033Z,3.40
2019-03-01T20:18:41.768Z,4.00
2019-03-01T20:21:10.485Z,3.90
2019-03-01T20:23:38.087Z,3.83
2019-03-01T20:26:05.115Z,3.72
2019-03-01T20:28:32.284Z,4.40
2019-03-01T20:31:01.554Z,3.85
2019-03-01T20:33:28.183Z,3.25
2019-03-01T20:35:55.470Z,5.80
2019-03-01T20:38:22.515Z,3.22
2019-03-01T20:40:49.599Z,3.83
2019-03-01T20:43:16.659Z,2.45
2019-03-01T20:45:43.782Z,3.62
2019-03-01T20:48:10.958Z,3.02
2019-03-01T20:50:38.051Z,3.40
2019-03-01T20:53:05.325Z,3.17
2019-03-01T20:55:33.113Z,3.45
2019-03-01T20:58:03.102Z,2.90
2019-03-01T21:00:30.458Z,2.80
2019-03-01T21:02:57.707Z,2.45
2019-03-01T21:05:28.791Z,3.40
2019-03-01T21:07:54.892Z,3.10
2019-03-01T21:10:23.859Z,2.35
2019-03-01T21:12:51.635Z,3.10
2019-03-01T21:15:21.380Z,3.05
2019-03-01T21:17:48.901Z,2.87
2019-03-01T21:20:19.590Z,3.52
2019-03-01T21:22:46.936Z,3.02
2019-03-01T21:25:14.250Z,2.72
2019-03-01T21:27:41.332Z,2.65
2019-03-01T21:30:15.051Z,2.58
2019-03-01T21:32:42.116Z,3.08
2019-03-01T21:35:10.475Z,2.33
2019-03-01T21:37:39.371Z,2.35
2019-03-01T21:40:07.290Z,3.52
2019-03-01T21:42:34.865Z,1.95
2019-03-01T21:45:02.529Z,3.30
2019-03-01T21:47:29.871Z,2.10
2019-03-01T21:49:59.961Z,2.55
2019-03-01T21:52:29.589Z,2.52
2019-03-01T21:54:55.760Z,2.45
2019-03-01T21:57:22.920Z,2.00
2019-03-01T21:59:52.486Z,2.08
2019-03-01T22:02:19.268Z,2.75
2019-03-01T22:04:46.345Z,3.10
2019-03-01T22:07:13.344Z,2.33
2019-03-01T22:09:40.562Z,2.42
2019-03-01T22:12:07.787Z,2.05
2019-03-01T22:14:34.867Z,3.87
2019-03-01T22:17:01.898Z,2.37
2019-03-01T22:19:30.569Z,1.65
2019-03-01T22:21:58.764Z,2.22
2019-03-01T22:24:27.382Z,2.25
2019-03-01T22:26:54.562Z,2.50
2019-03-01T22:29:21.887Z,2.15
2019-03-01T22:31:50.130Z,2.75
2019-03-01T22:34:17.217Z,2.60
2019-03-01T22:36:44.835Z,2.35
2019-03-01T22:39:13.648Z,2.37
2019-03-01T22:41:41.105Z,2.17
2019-03-01T22:44:08.234Z,3.00
2019-03-01T22:46:35.484Z,2.27
2019-03-01T22:49:02.819Z,2.25
2019-03-01T22:51:29.849Z,2.20
2019-03-01T22:53:57.486Z,2.00
2019-03-01T22:56:24.584Z,2.00
2019-03-01T22:58:51.914Z,2.98
2019-03-01T23:01:32.667Z,2.02
2019-03-01T23:04:01.042Z,2.40
2019-03-01T23:06:28.827Z,2.25
2019-03-01T23:08:56.146Z,1.98
2019-03-01T23:11:23.525Z,1.60
2019-03-01T23:13:52.763Z,1.75
2019-03-01T23:16:19.734Z,2.42
2019-03-01T23:18:56.382Z,2.30
2019-03-01T23:21:18.224Z,2.20
2019-03-01T23:23:48.323Z,1.98
2019-03-01T23:26:18.646Z,1.90
2019-03-01T23:28:44.726Z,2.08
2019-03-01T23:31:12.895Z,1.80
2019-03-01T23:33:39.888Z,2.02
2019-03-01T23:36:07.011Z,2.42
2019-03-01T23:38:34.115Z,2.12
2019-03-01T23:41:01.198Z,2.17
2019-03-01T23:43:30.816Z,2.77
2019-03-01T23:45:57.184Z,2.15
2019-03-01T23:48:24.503Z,1.98
2019-03-01T23:50:51.504Z,2.17
2019-03-01T23:53:18.539Z,2.10
2019-03-01T23:55:46.204Z,1.75
2019-03-01T23:58:15.878Z,2.05
